Elettra — H9AK — position and weather

sailwx.info

Track history (hours):
 
Tides and Currents Weather Stations Pressure Air Temp Water Temp Dewpoint Dewpoint Depression Visibility Wind Speed Wind Dir Waves Ship Positions

Elettra

Last reported at 2016-Apr-24 12:25 UTC. Time now 2016-May-06 09:13 UTC.
Position N 34°01' E 128°22'.
Warning: this ship's position is 11 days out of date.

Length 254 m; draft 7 m.

Type: Cargo ship. MMSI: 371188000.

Date/timePositionNaut miles runAvg speedWind from/ knotsBaromVisibWave heightAir tempDewpointWater temp
2016-Apr-24 12:25N 34°01' E 128°22'1214.5
2016-Apr-24 11:33N 33°50' E 128°14'1714.7
2016-Apr-24 10:24N 33°37' E 128°01'35713.6
2016-Apr-23 08:03N 29°43' E 122°44'713.3
2016-Apr-23 07:32N 29°40' E 122°37'1413.4
2016-Apr-23 06:28N 29°43' E 122°21'1010.6
2016-Apr-23 05:33N 29°50' E 122°13'3 1.2
2016-Apr-23 03:03N 29°53' E 122°13'0 0.1
2016-Apr-23 02:33N 29°53' E 122°13'0 0.0
2016-Apr-23 01:09N 29°53' E 122°13'0 0.1
2016-Apr-22 23:21N 29°53' E 122°13'0 0.0
2016-Apr-22 19:15N 29°53' E 122°13'0 0.0
2016-Apr-22 13:09N 29°53' E 122°13'0 0.1
2016-Apr-22 12:15N 29°53' E 122°13'0 0.1
2016-Apr-22 10:12N 29°53' E 122°13'2 3.9
2016-Apr-22 09:33N 29°55' E 122°13'0 0.3
2016-Apr-22 08:33N 29°55' E 122°13'2 0.2
2016-Apr-21 23:30N 29°56' E 122°15'0 0.0
2016-Apr-21 22:30N 29°56' E 122°15'0 0.0
2016-Apr-21 18:24N 29°56' E 122°15'0 0.0
2016-Apr-21 08:30N 29°56' E 122°15'0 0.2
2016-Apr-21 07:33N 29°56' E 122°15'4 4.4
2016-Apr-21 06:33N 29°53' E 122°12'1 0.3
2016-Apr-21 01:22N 29°52' E 122°13'7 8.1
2016-Apr-21 00:32N 29°46' E 122°18'7 6.4
2016-Apr-20 23:29N 29°45' E 122°25'7 7.6
2016-Apr-20 22:30N 29°46' E 122°34'1010.5
2016-Apr-20 21:32N 29°49' E 122°45'  
Track history (hours):
 
Tides and Currents Weather Stations Pressure Air Temp Water Temp Dewpoint Dewpoint Depression Visibility Wind Speed Wind Dir Waves Ship Positions

Elettra

Last reported at 2016-Apr-24 12:25 UTC. Time now 2016-May-06 09:13 UTC.
Position N 34°01' E 128°22'.
Warning: this ship's position is 11 days out of date.

Length 254 m; draft 7 m.

Type: Cargo ship. MMSI: 371188000.

Date/timePositionNaut miles runAvg speedWind from/ knotsBaromVisibWave heightAir tempDewpointWater temp
2016-Apr-24 12:25N 34°01' E 128°22'1214.5
2016-Apr-24 11:33N 33°50' E 128°14'1714.7
2016-Apr-24 10:24N 33°37' E 128°01'35713.6
2016-Apr-23 08:03N 29°43' E 122°44'713.3
2016-Apr-23 07:32N 29°40' E 122°37'1413.4
2016-Apr-23 06:28N 29°43' E 122°21'1010.6
2016-Apr-23 05:33N 29°50' E 122°13'3 1.2
2016-Apr-23 03:03N 29°53' E 122°13'0 0.1
2016-Apr-23 02:33N 29°53' E 122°13'0 0.0
2016-Apr-23 01:09N 29°53' E 122°13'0 0.1
2016-Apr-22 23:21N 29°53' E 122°13'0 0.0
2016-Apr-22 19:15N 29°53' E 122°13'0 0.0
2016-Apr-22 13:09N 29°53' E 122°13'0 0.1
2016-Apr-22 12:15N 29°53' E 122°13'0 0.1
2016-Apr-22 10:12N 29°53' E 122°13'2 3.9
2016-Apr-22 09:33N 29°55' E 122°13'0 0.3
2016-Apr-22 08:33N 29°55' E 122°13'2 0.2
2016-Apr-21 23:30N 29°56' E 122°15'0 0.0
2016-Apr-21 22:30N 29°56' E 122°15'0 0.0
2016-Apr-21 18:24N 29°56' E 122°15'0 0.0
2016-Apr-21 08:30N 29°56' E 122°15'0 0.2
2016-Apr-21 07:33N 29°56' E 122°15'4 4.4
2016-Apr-21 06:33N 29°53' E 122°12'1 0.3
2016-Apr-21 01:22N 29°52' E 122°13'7 8.1
2016-Apr-21 00:32N 29°46' E 122°18'7 6.4
2016-Apr-20 23:29N 29°45' E 122°25'7 7.6
2016-Apr-20 22:30N 29°46' E 122°34'1010.5
2016-Apr-20 21:32N 29°49' E 122°45'  

Dump ship's entire track history